createdAt,value
2022-12-19T00:00:38.210Z,102095.84
2022-12-19T00:03:06.257Z,102105.84
2022-12-19T00:05:38.006Z,102113.06
2022-12-19T00:08:17.434Z,102111.41
2022-12-19T00:10:56.225Z,102118.47
2022-12-19T00:13:24.831Z,102108.16
2022-12-19T00:15:53.184Z,102116.78
2022-12-19T00:18:21.228Z,102126.56
2022-12-19T00:20:56.468Z,102121.00
2022-12-19T00:23:24.540Z,102124.78
2022-12-19T00:25:54.102Z,102121.13
2022-12-19T00:28:23.319Z,102116.50
2022-12-19T00:30:51.640Z,102118.88
2022-12-19T00:33:24.438Z,102113.31
2022-12-19T00:35:52.325Z,102113.13
2022-12-19T00:38:20.263Z,102112.16
2022-12-19T00:40:48.256Z,102116.56
2022-12-19T00:43:17.585Z,102113.69
2022-12-19T00:45:45.539Z,102112.81
2022-12-19T00:48:13.579Z,102126.28
2022-12-19T00:50:44.200Z,102116.28
2022-12-19T00:53:12.116Z,102111.75
2022-12-19T00:55:40.135Z,102121.56
2022-12-19T00:58:08.079Z,102118.88
2022-12-19T01:00:37.490Z,102120.50
2022-12-19T01:03:05.806Z,102094.59
2022-12-19T01:05:33.819Z,102118.97
2022-12-19T01:08:02.251Z,102118.88
2022-12-19T01:10:31.317Z,102124.25
2022-12-19T01:12:58.383Z,102121.44
2022-12-19T01:15:26.323Z,102118.75
2022-12-19T01:17:55.697Z,102121.25
2022-12-19T01:20:29.295Z,102128.69
2022-12-19T01:23:00.204Z,102120.69
2022-12-19T01:25:28.618Z,102121.56
2022-12-19T01:27:57.885Z,102108.09
2022-12-19T01:30:26.124Z,102102.84
2022-12-19T01:32:57.526Z,102102.59
2022-12-19T01:35:27.928Z,102099.16
2022-12-19T01:38:09.151Z,102108.09
2022-12-19T01:40:38.024Z,102097.44
2022-12-19T01:43:06.786Z,102106.16
2022-12-19T01:45:42.168Z,102103.47
2022-12-19T01:48:19.863Z,102105.22
2022-12-19T01:51:00.814Z,102097.91
2022-12-19T01:53:35.579Z,102092.50
2022-12-19T01:56:10.565Z,102082.63
2022-12-19T01:58:42.797Z,102061.13
2022-12-19T02:01:10.791Z,102094.44
2022-12-19T02:03:42.486Z,102089.06
2022-12-19T02:06:13.632Z,102088.09
2022-12-19T02:08:44.337Z,102091.44
2022-12-19T02:11:12.532Z,102092.50
2022-12-19T02:13:41.064Z,102105.97
2022-12-19T02:16:22.819Z,102102.97
2022-12-19T02:19:03.393Z,102098.47
2022-12-19T02:21:46.128Z,102102.97
2022-12-19T02:24:54.470Z,102103.16
2022-12-19T02:28:04.060Z,102092.63
2022-12-19T02:30:47.479Z,102084.44
2022-12-19T02:33:21.287Z,102094.13
2022-12-19T02:35:54.640Z,102090.53
2022-12-19T02:38:30.230Z,102098.66
2022-12-19T02:41:05.792Z,102095.22
2022-12-19T02:43:44.078Z,102108.00
2022-12-19T02:46:14.552Z,102103.47
2022-12-19T02:48:44.409Z,102099.91
2022-12-19T02:51:12.467Z,102100.97
2022-12-19T02:53:41.115Z,102097.66
2022-12-19T02:56:23.055Z,102093.97
2022-12-19T02:59:07.078Z,102083.84
2022-12-19T03:01:45.752Z,102088.78
2022-12-19T03:04:21.601Z,102087.09
2022-12-19T03:06:55.075Z,102089.66
2022-12-19T03:09:31.902Z,102102.34
2022-12-19T03:12:09.137Z,102096.03
2022-12-19T03:14:38.796Z,102100.53
2022-12-19T03:17:09.437Z,102097.72
2022-12-19T03:19:40.774Z,102107.53
2022-12-19T03:22:09.018Z,102096.97
2022-12-19T03:24:37.004Z,102097.84
2022-12-19T03:27:10.653Z,102090.72
2022-12-19T03:29:43.857Z,102092.78
2022-12-19T03:32:16.246Z,102097.16
2022-12-19T03:34:48.934Z,102088.22
2022-12-19T03:37:20.161Z,102086.84
2022-12-19T03:39:51.940Z,102076.91
2022-12-19T03:42:39.917Z,102088.72
2022-12-19T03:45:09.898Z,102085.56
2022-12-19T03:47:43.321Z,102083.75
2022-12-19T03:50:12.454Z,102086.31
2022-12-19T03:52:47.243Z,102064.53
2022-12-19T03:55:19.295Z,102077.88
2022-12-19T03:57:55.580Z,102081.56
2022-12-19T04:00:25.246Z,102077.44
2022-12-19T04:02:58.148Z,102062.94
2022-12-19T04:05:29.392Z,102070.50
2022-12-19T04:08:00.149Z,102077.81
2022-12-19T04:10:30.000Z,102076.19
2022-12-19T04:13:03.446Z,102070.91
2022-12-19T04:15:36.334Z,102068.31
2022-12-19T04:18:08.264Z,102067.34
2022-12-19T04:20:39.786Z,102056.69
2022-12-19T04:23:12.573Z,102055.53
2022-12-19T04:25:44.540Z,102049.16
2022-12-19T04:28:19.553Z,102045.41
2022-12-19T04:30:48.387Z,102035.53
2022-12-19T04:33:17.914Z,102038.16
2022-12-19T04:35:46.000Z,102039.09
2022-12-19T04:38:14.018Z,102035.53
2022-12-19T04:40:42.022Z,102031.97
2022-12-19T04:43:10.536Z,102037.34
2022-12-19T04:45:38.581Z,102041.09
2022-12-19T04:48:08.102Z,102043.59
2022-12-19T04:50:38.338Z,102038.97
2022-12-19T04:53:06.784Z,102031.13
2022-12-19T04:55:34.758Z,101975.22
2022-12-19T04:58:05.535Z,102032.19
2022-12-19T05:00:33.627Z,102039.59
2022-12-19T05:03:01.756Z,102037.97
2022-12-19T05:05:29.997Z,102043.34
2022-12-19T05:08:00.758Z,102041.59
2022-12-19T05:10:28.789Z,102038.28
2022-12-19T05:12:56.660Z,102027.59
2022-12-19T05:15:24.771Z,102034.72
2022-12-19T05:17:52.814Z,102036.41
2022-12-19T05:20:20.745Z,102030.19
2022-12-19T05:22:48.641Z,102018.66
2022-12-19T05:25:18.234Z,102022.91
2022-12-19T05:27:46.245Z,102026.66
2022-12-19T05:30:14.717Z,102018.47
2022-12-19T05:32:42.696Z,102030.28
2022-12-19T05:35:10.789Z,102033.84
2022-12-19T05:37:38.773Z,102022.03
2022-12-19T05:40:07.954Z,102027.22
2022-12-19T05:42:37.395Z,102021.91
2022-12-19T05:45:05.972Z,102022.50
2022-12-19T05:47:34.023Z,102016.25
2022-12-19T05:50:02.089Z,102013.47
2022-12-19T05:52:30.036Z,102021.53
2022-12-19T05:54:58.066Z,102012.50
2022-12-19T05:57:27.017Z,102008.94
2022-12-19T05:59:56.418Z,102012.50
2022-12-19T06:02:24.562Z,102010.75
2022-12-19T06:04:52.741Z,102016.81
2022-12-19T06:07:21.358Z,102022.84
2022-12-19T06:09:49.562Z,102014.13
2022-12-19T06:12:17.614Z,102013.25
2022-12-19T06:14:45.595Z,102021.31
2022-12-19T06:17:14.960Z,102007.78
2022-12-19T06:19:43.036Z,102006.06
2022-12-19T06:22:10.920Z,102002.38
2022-12-19T06:24:38.979Z,102005.09
2022-12-19T06:27:06.935Z,102002.31
2022-12-19T06:29:34.867Z,102001.31
2022-12-19T06:32:02.845Z,101991.34
2022-12-19T06:35:02.672Z,101989.41
2022-12-19T06:37:20.401Z,101983.38
2022-12-19T06:39:48.316Z,101989.63
2022-12-19T06:42:23.975Z,101986.94
2022-12-19T06:44:53.664Z,101986.19
2022-12-19T06:47:23.622Z,101976.91
2022-12-19T06:49:52.969Z,101981.16
2022-12-19T06:52:20.893Z,101988.25
2022-12-19T06:54:48.745Z,101980.84
2022-12-19T06:57:16.711Z,101982.47
2022-12-19T06:59:44.729Z,101984.09
2022-12-19T07:02:28.464Z,101980.44
2022-12-19T07:05:03.150Z,101979.41
2022-12-19T07:07:31.281Z,101980.28
2022-12-19T07:09:59.395Z,101981.91
2022-12-19T07:12:27.948Z,101971.03
2022-12-19T07:14:55.919Z,101972.97
2022-12-19T07:17:25.943Z,101971.03
2022-12-19T07:19:56.965Z,101962.00
2022-12-19T07:22:32.163Z,101953.81
2022-12-19T07:25:00.809Z,101945.94
2022-12-19T07:27:35.479Z,101942.19
2022-12-19T07:30:06.087Z,101935.63
2022-12-19T07:32:34.062Z,101940.25
2022-12-19T07:35:02.700Z,101934.97
2022-12-19T07:37:32.004Z,101939.50
2022-12-19T07:40:00.090Z,101938.84
2022-12-19T07:42:32.202Z,101932.50
2022-12-19T07:45:01.497Z,101929.03
2022-12-19T07:47:29.627Z,101930.78
2022-12-19T07:49:57.701Z,101939.81
2022-12-19T07:52:25.734Z,101947.69
2022-12-19T07:54:55.094Z,101937.66
2022-12-19T07:57:23.169Z,101931.53
2022-12-19T07:59:51.097Z,101924.22
2022-12-19T08:02:19.362Z,101924.41
2022-12-19T08:04:47.546Z,101914.84
2022-12-19T08:07:15.761Z,101917.41
2022-12-19T08:09:43.867Z,101914.72
2022-12-19T08:12:13.317Z,101919.16
2022-12-19T08:14:41.312Z,101912.69
2022-12-19T08:17:20.300Z,101911.63
2022-12-19T08:19:50.077Z,101909.69
2022-12-19T08:22:18.118Z,101905.81
2022-12-19T08:24:46.465Z,101897.72
2022-12-19T08:27:17.192Z,101891.41
2022-12-19T08:29:45.462Z,101891.53
2022-12-19T08:32:20.236Z,101886.00
2022-12-19T08:34:51.694Z,101887.75
2022-12-19T08:37:19.796Z,101885.69
2022-12-19T08:39:47.825Z,101874.19
2022-12-19T08:42:17.271Z,101874.41
2022-12-19T08:44:45.330Z,101857.28
2022-12-19T08:47:13.537Z,101855.47
2022-12-19T08:49:41.580Z,101844.91
2022-12-19T08:52:09.618Z,101841.47
2022-12-19T08:54:37.952Z,101838.66
2022-12-19T08:57:05.917Z,101841.34
2022-12-19T08:59:35.269Z,101838.66
2022-12-19T09:02:06.264Z,101824.34
2022-12-19T09:06:02.216Z,101831.56
2022-12-19T09:07:22.906Z,101829.72
2022-12-19T09:09:50.795Z,101815.19
2022-12-19T09:12:18.805Z,101815.09
2022-12-19T09:14:48.240Z,101815.09
2022-12-19T09:17:16.334Z,101805.28
2022-12-19T09:19:47.932Z,101815.31
2022-12-19T09:22:16.562Z,101803.59
2022-12-19T09:24:44.715Z,101807.22
2022-12-19T09:27:12.709Z,101807.97
2022-12-19T09:29:42.635Z,101800.91
2022-12-19T09:32:12.282Z,101796.34
2022-12-19T09:34:40.276Z,101786.44
2022-12-19T09:37:11.717Z,101790.00
2022-12-19T09:39:46.759Z,101774.94
2022-12-19T09:42:31.556Z,101774.59
2022-12-19T09:45:26.956Z,101775.47
2022-12-19T09:48:02.886Z,101772.03
2022-12-19T09:50:46.128Z,101765.44
2022-12-19T09:53:20.333Z,101760.94
2022-12-19T09:55:49.454Z,101755.47
2022-12-19T09:58:31.373Z,101755.22
2022-12-19T10:01:03.038Z,101745.53
2022-12-19T10:03:40.355Z,101724.84
2022-12-19T10:07:10.474Z,101723.16
2022-12-19T10:10:57.336Z,101724.13
2022-12-19T10:12:39.748Z,101723.38
2022-12-19T10:15:10.730Z,101717.13
2022-12-19T10:17:58.388Z,101714.44
2022-12-19T10:20:31.387Z,101717.00
2022-12-19T10:23:12.503Z,101717.00
2022-12-19T10:26:00.534Z,101701.72
2022-12-19T10:28:46.229Z,101693.56
2022-12-19T10:31:21.963Z,101692.47
2022-12-19T10:33:58.330Z,101698.47
2022-12-19T10:36:55.894Z,101714.41
2022-12-19T10:39:28.652Z,101715.25
2022-12-19T10:42:04.012Z,101714.63
2022-12-19T10:44:38.221Z,101710.09
2022-12-19T10:47:06.595Z,101710.97
2022-12-19T10:49:34.613Z,101706.53
2022-12-19T10:52:07.937Z,101702.03
2022-12-19T10:54:44.094Z,101696.63
2022-12-19T10:57:19.975Z,101700.53
2022-12-19T10:59:56.686Z,101695.16
2022-12-19T11:02:35.214Z,101685.34
2022-12-19T11:05:04.907Z,101672.97
2022-12-19T11:07:34.282Z,101668.47
2022-12-19T11:10:57.723Z,101659.50
2022-12-19T11:15:42.544Z,101641.41
2022-12-19T11:21:11.576Z,101633.34
2022-12-19T11:26:36.642Z,101621.09
2022-12-19T11:29:38.749Z,101621.63
2022-12-19T11:30:41.837Z,101623.00
2022-12-19T11:30:47.441Z,101617.63
2022-12-19T11:33:20.055Z,101608.16
2022-12-19T11:35:51.914Z,101612.56
2022-12-19T11:38:27.245Z,101615.50
2022-12-19T11:40:58.946Z,101594.19
2022-12-19T11:43:46.894Z,101584.50
2022-12-19T11:46:38.088Z,101584.81
2022-12-19T11:49:12.217Z,101587.78
2022-12-19T11:51:49.595Z,101588.72
2022-12-19T11:54:21.756Z,101589.81
2022-12-19T11:56:51.601Z,101574.75
2022-12-19T11:59:22.309Z,101570.25
2022-12-19T12:02:04.893Z,101529.47
2022-12-19T12:04:55.977Z,101551.72
2022-12-19T12:07:39.888Z,101544.72
2022-12-19T12:16:09.471Z,101540.22
2022-12-19T12:20:44.117Z,101541.22
2022-12-19T12:28:05.305Z,101524.22
2022-12-19T12:31:13.966Z,101519.44
2022-12-19T12:31:18.058Z,101521.91
2022-12-19T12:31:44.725Z,101509.22
2022-12-19T12:32:06.045Z,101516.44
2022-12-19T12:35:46.566Z,101490.25
2022-12-19T12:40:55.409Z,101489.03
2022-12-19T12:43:37.298Z,101485.38
2022-12-19T12:46:11.014Z,101480.00
2022-12-19T12:48:46.662Z,101468.38
2022-12-19T12:51:16.001Z,101470.47
2022-12-19T12:53:46.695Z,101446.41
2022-12-19T12:56:17.475Z,101458.84
2022-12-19T12:59:07.251Z,101455.06
2022-12-19T13:01:37.952Z,101447.94
2022-12-19T13:04:20.885Z,101444.16
2022-12-19T13:07:28.234Z,101437.91
2022-12-19T13:10:18.857Z,101375.16
2022-12-19T13:13:02.330Z,101417.38
2022-12-19T13:15:49.518Z,101402.09
2022-12-19T13:18:37.645Z,101404.66
2022-12-19T13:21:09.257Z,101390.25
2022-12-19T13:24:16.201Z,101395.34
2022-12-19T13:26:47.542Z,101387.41
2022-12-19T13:29:51.059Z,101381.81
2022-12-19T13:32:21.781Z,101369.09
2022-12-19T13:35:11.322Z,101374.22
2022-12-19T13:39:49.255Z,101372.41
2022-12-19T13:40:55.317Z,101370.06
2022-12-19T13:43:45.951Z,101361.78
2022-12-19T13:46:26.675Z,101357.00
2022-12-19T13:49:00.620Z,101345.38
2022-12-19T13:51:28.632Z,101344.41
2022-12-19T13:53:59.890Z,101346.13
2022-12-19T13:56:32.075Z,101338.66
2022-12-19T13:59:04.364Z,101328.13
2022-12-19T14:01:35.112Z,101326.16
2022-12-19T14:04:08.920Z,101316.03
2022-12-19T14:06:43.119Z,101327.75
2022-12-19T14:11:24.698Z,101321.50
2022-12-19T14:13:57.635Z,101309.03
2022-12-19T14:15:32.485Z,101325.44
2022-12-19T14:18:41.733Z,101322.50
2022-12-19T14:22:01.852Z,101313.72
2022-12-19T14:24:10.385Z,101319.81
2022-12-19T14:28:18.784Z,101300.97
2022-12-19T14:30:28.971Z,101298.88
2022-12-19T14:33:40.742Z,101288.88
2022-12-19T14:36:05.320Z,101286.75
2022-12-19T14:39:20.516Z,101285.78
2022-12-19T14:41:09.125Z,101280.28
2022-12-19T14:43:59.552Z,101275.88
2022-12-19T14:52:36.193Z,101277.13
2022-12-19T14:53:34.063Z,101270.03
2022-12-19T14:54:48.108Z,101265.00
2022-12-19T14:56:08.436Z,101262.78
2022-12-19T14:58:53.872Z,101251.88
2022-12-19T15:01:27.183Z,101251.50
2022-12-19T15:04:47.833Z,101226.44
2022-12-19T15:07:07.693Z,101242.31
2022-12-19T15:11:07.711Z,101250.38
2022-12-19T15:14:51.165Z,101244.41
2022-12-19T15:15:46.189Z,101242.09
2022-12-19T15:18:24.250Z,101240.13
2022-12-19T15:20:53.325Z,101231.34
2022-12-19T15:23:22.619Z,101228.34
2022-12-19T15:26:08.224Z,101222.13
2022-12-19T15:28:43.558Z,101224.22
2022-12-19T15:31:29.860Z,101214.31
2022-12-19T15:36:46.244Z,101213.31
2022-12-19T15:39:15.097Z,101194.44
2022-12-19T15:41:44.250Z,101191.66
2022-12-19T15:44:19.355Z,101191.41
2022-12-19T15:46:49.210Z,101187.38
2022-12-19T15:49:19.357Z,101164.03
2022-12-19T15:51:47.539Z,101178.91
2022-12-19T15:57:04.318Z,101169.84
2022-12-19T15:59:38.693Z,101159.91
2022-12-19T16:02:17.714Z,101155.38
2022-12-19T16:04:47.504Z,101149.41
2022-12-19T16:07:17.167Z,101147.53
2022-12-19T16:09:45.390Z,101143.16
2022-12-19T16:12:15.977Z,101147.53
2022-12-19T16:14:46.394Z,101141.59
2022-12-19T16:17:19.203Z,101115.88
2022-12-19T16:19:47.357Z,101123.84
2022-12-19T16:22:20.409Z,101118.44
2022-12-19T16:24:48.415Z,101111.34
2022-12-19T16:27:24.906Z,101105.72
2022-12-19T16:29:55.490Z,101105.81
2022-12-19T16:32:25.586Z,101096.03
2022-12-19T16:34:54.559Z,101100.19
2022-12-19T16:37:25.837Z,101091.53
2022-12-19T16:39:58.265Z,101095.91
2022-12-19T16:42:26.292Z,101095.91
2022-12-19T16:44:55.597Z,101092.25
2022-12-19T16:47:23.621Z,101092.25
2022-12-19T16:49:51.597Z,101087.72
2022-12-19T16:52:19.705Z,101086.72
2022-12-19T16:54:47.609Z,101086.72
2022-12-19T16:57:20.701Z,101051.16
2022-12-19T16:59:49.599Z,101079.47
2022-12-19T17:02:42.171Z,101066.63
2022-12-19T17:05:20.166Z,101053.56
2022-12-19T17:07:48.963Z,101059.25
2022-12-19T17:10:21.331Z,101053.47
2022-12-19T17:12:53.864Z,101046.84
2022-12-19T17:15:27.457Z,101043.75
2022-12-19T17:17:59.288Z,101040.09
2022-12-19T17:20:30.358Z,101033.69
2022-12-19T17:22:58.411Z,101031.16
2022-12-19T17:25:28.563Z,101013.78
2022-12-19T17:27:58.417Z,101022.19
2022-12-19T17:30:26.470Z,101021.34
2022-12-19T17:32:57.211Z,101015.97
2022-12-19T17:35:29.450Z,101012.81
2022-12-19T17:37:58.454Z,101009.41
2022-12-19T17:40:28.812Z,101007.56
2022-12-19T17:42:57.499Z,101004.97
2022-12-19T17:45:27.049Z,101005.69
2022-12-19T17:48:02.524Z,101002.19
2022-12-19T17:50:35.791Z,100992.22
2022-12-19T17:53:03.879Z,100992.22
2022-12-19T17:55:32.310Z,100985.00
2022-12-19T17:58:00.335Z,100988.44
2022-12-19T18:00:30.958Z,100987.31
2022-12-19T18:03:04.899Z,100977.13
2022-12-19T18:05:35.828Z,100975.13
2022-12-19T18:08:04.910Z,100971.31
2022-12-19T18:10:33.610Z,100964.22
2022-12-19T18:13:01.552Z,100967.66
2022-12-19T18:15:29.508Z,100964.09
2022-12-19T18:18:00.085Z,100952.34
2022-12-19T18:20:32.115Z,100954.31
2022-12-19T18:23:01.451Z,100946.50
2022-12-19T18:25:32.063Z,100950.88
2022-12-19T18:28:00.090Z,100940.97
2022-12-19T18:30:28.119Z,100927.91
2022-12-19T18:32:58.708Z,100931.19
2022-12-19T18:35:32.516Z,100918.69
2022-12-19T18:38:02.169Z,100920.94
2022-12-19T18:40:31.857Z,100922.06
2022-12-19T18:43:00.275Z,100906.88
2022-12-19T18:45:35.398Z,100906.88
2022-12-19T18:48:07.328Z,100903.31
2022-12-19T18:50:36.699Z,100897.22
2022-12-19T18:53:11.711Z,100892.84
2022-12-19T18:55:40.201Z,100894.09
2022-12-19T18:58:08.167Z,100893.09
2022-12-19T19:00:36.822Z,100897.50
2022-12-19T19:03:07.160Z,100889.41
2022-12-19T19:05:40.213Z,100879.63
2022-12-19T19:08:16.071Z,100878.94
2022-12-19T19:10:47.918Z,100874.38
2022-12-19T19:13:20.192Z,100870.00
2022-12-19T19:15:51.328Z,100854.09
2022-12-19T19:18:23.850Z,100865.16
2022-12-19T19:21:00.779Z,100863.47
2022-12-19T19:23:34.261Z,100860.19
2022-12-19T19:26:02.263Z,100862.03
2022-12-19T19:28:30.301Z,100863.47
2022-12-19T19:31:00.337Z,100856.25
2022-12-19T19:33:33.647Z,100858.09
2022-12-19T19:36:11.965Z,100850.28
2022-12-19T19:38:42.525Z,100848.00
2022-12-19T19:41:10.668Z,100846.28
2022-12-19T19:43:38.759Z,100852.53
2022-12-19T19:46:07.013Z,100842.03
2022-12-19T19:48:35.162Z,100841.03
2022-12-19T19:51:04.660Z,100848.00
2022-12-19T19:53:32.659Z,100834.91
2022-12-19T19:56:01.998Z,100827.56
2022-12-19T19:58:30.482Z,100814.94
2022-12-19T20:00:58.521Z,100826.44
2022-12-19T20:03:26.990Z,100791.50
2022-12-19T20:06:00.769Z,100812.72
2022-12-19T20:08:37.041Z,100811.72
2022-12-19T20:11:07.697Z,100805.47
2022-12-19T20:13:35.752Z,100804.34
2022-12-19T20:16:04.233Z,100798.84
2022-12-19T20:18:32.284Z,100797.00
2022-12-19T20:21:00.372Z,100788.75
2022-12-19T20:23:28.839Z,100785.91
2022-12-19T20:26:03.624Z,100782.84
2022-12-19T20:28:32.369Z,100774.31
2022-12-19T20:31:00.524Z,100778.69
2022-12-19T20:33:28.608Z,100779.41
2022-12-19T20:35:56.985Z,100771.63
2022-12-19T20:38:25.215Z,100769.75
2022-12-19T20:40:55.872Z,100751.44
2022-12-19T20:43:25.787Z,100773.31
2022-12-19T20:45:53.848Z,100770.63
2022-12-19T20:48:21.747Z,100777.56
2022-12-19T20:50:49.749Z,100775.03
2022-12-19T20:53:17.912Z,100775.72
2022-12-19T20:55:57.567Z,100768.09
2022-12-19T20:58:28.541Z,100769.81
2022-12-19T21:00:57.300Z,100765.13
2022-12-19T21:03:28.611Z,100755.75
2022-12-19T21:05:58.117Z,100752.22
2022-12-19T21:08:27.417Z,100744.16
2022-12-19T21:10:55.802Z,100742.59
2022-12-19T21:13:24.878Z,100733.66
2022-12-19T21:15:54.966Z,100739.16
2022-12-19T21:18:23.378Z,100735.75
2022-12-19T21:20:54.434Z,100741.16
2022-12-19T21:23:22.906Z,100730.66
2022-12-19T21:25:51.193Z,100729.50
2022-12-19T21:28:19.410Z,100733.50
2022-12-19T21:30:47.479Z,100732.50
2022-12-19T21:33:17.028Z,100735.06
2022-12-19T21:35:45.029Z,100728.09
2022-12-19T21:38:13.006Z,100727.94
2022-12-19T21:40:40.989Z,100730.78
2022-12-19T21:43:11.987Z,100728.97
2022-12-19T21:45:40.484Z,100727.25
2022-12-19T21:48:08.426Z,100718.31
2022-12-19T21:50:37.846Z,100716.47
2022-12-19T21:53:05.920Z,100714.91
2022-12-19T21:55:33.858Z,100709.53
2022-12-19T21:58:01.815Z,100710.38
2022-12-19T22:00:29.764Z,100702.41
2022-12-19T22:03:14.966Z,100698.91
2022-12-19T22:05:44.891Z,100688.25
2022-12-19T22:08:12.800Z,100697.88
2022-12-19T22:10:40.800Z,100684.41
2022-12-19T22:13:08.871Z,100698.91
2022-12-19T22:15:37.492Z,100686.13
2022-12-19T22:18:05.777Z,100679.72
2022-12-19T22:20:33.723Z,100682.59
2022-12-19T22:23:05.926Z,100683.28
2022-12-19T22:25:38.004Z,100681.44
2022-12-19T22:28:06.273Z,100672.38
2022-12-19T22:30:35.623Z,100660.75
2022-12-19T22:33:04.726Z,100660.06
2022-12-19T22:35:35.308Z,100641.16
2022-12-19T22:38:04.696Z,100646.00
2022-12-19T22:40:33.198Z,100652.38
2022-12-19T22:43:01.154Z,100650.69
2022-12-19T22:45:31.366Z,100644.28
2022-12-19T22:47:59.718Z,100637.22
2022-12-19T22:50:27.699Z,100630.81
2022-12-19T22:52:55.710Z,100629.25
2022-12-19T22:55:25.097Z,100627.31
2022-12-19T22:57:53.222Z,100625.75
2022-12-19T23:00:21.793Z,100621.34
2022-12-19T23:02:49.998Z,100615.25
2022-12-19T23:05:18.317Z,100604.47
2022-12-19T23:07:46.486Z,100602.19
2022-12-19T23:10:15.099Z,100598.38
2022-12-19T23:12:44.421Z,100594.56
2022-12-19T23:15:12.617Z,100594.41
2022-12-19T23:17:40.580Z,100590.72
2022-12-19T23:20:09.854Z,100593.97
2022-12-19T23:22:37.898Z,100588.47
2022-12-19T23:25:07.158Z,100595.53
2022-12-19T23:27:35.188Z,100584.63
2022-12-19T23:30:05.639Z,100584.63
2022-12-19T23:32:33.623Z,100585.88
2022-12-19T23:35:01.687Z,100581.63
2022-12-19T23:37:29.749Z,100575.72
2022-12-19T23:39:57.741Z,100554.03
2022-12-19T23:42:25.799Z,100574.69
2022-12-19T23:44:54.008Z,100509.78
2022-12-19T23:47:23.455Z,100558.28
2022-12-19T23:49:51.447Z,100554.13
2022-12-19T23:52:19.363Z,100545.50
2022-12-19T23:54:47.591Z,100542.09
2022-12-19T23:57:15.768Z,100540.53
2022-12-19T23:59:43.766Z,100535.88
